createdAt,value
2019-06-08T00:00:29.889Z,15.31
2019-06-08T00:01:29.965Z,15.30
2019-06-08T00:02:30.099Z,15.28
2019-06-08T00:03:30.049Z,15.28
2019-06-08T00:04:30.096Z,15.38
2019-06-08T00:05:30.138Z,15.39
2019-06-08T00:06:30.276Z,15.36
2019-06-08T00:07:30.236Z,15.30
2019-06-08T00:08:30.291Z,15.41
2019-06-08T00:09:30.334Z,15.33
2019-06-08T00:10:30.383Z,15.33
2019-06-08T00:11:30.481Z,15.39
2019-06-08T00:12:30.485Z,15.28
2019-06-08T00:13:30.542Z,15.33
2019-06-08T00:14:30.588Z,15.36
2019-06-08T00:15:30.634Z,15.41
2019-06-08T00:16:30.706Z,15.41
2019-06-08T00:17:38.558Z,15.43
2019-06-08T00:18:30.783Z,15.35
2019-06-08T00:19:30.840Z,15.42
2019-06-08T00:20:30.933Z,15.45
2019-06-08T00:21:30.976Z,15.38
2019-06-08T00:22:31.807Z,15.33
2019-06-08T00:23:31.031Z,15.39
2019-06-08T00:24:31.079Z,15.35
2019-06-08T00:25:31.131Z,15.39
2019-06-08T00:26:31.198Z,15.36
2019-06-08T00:27:31.247Z,15.31
2019-06-08T00:28:31.281Z,15.45
2019-06-08T00:29:31.335Z,15.42
2019-06-08T00:30:31.684Z,15.39
2019-06-08T00:31:31.422Z,15.33
2019-06-08T00:32:31.518Z,15.30
2019-06-08T00:33:31.529Z,15.31
2019-06-08T00:34:31.573Z,15.30
2019-06-08T00:35:31.626Z,15.33
2019-06-08T00:36:31.694Z,15.31
2019-06-08T00:37:31.754Z,15.36
2019-06-08T00:38:31.782Z,15.36
2019-06-08T00:39:31.833Z,15.31
2019-06-08T00:40:31.993Z,15.35
2019-06-08T00:41:31.939Z,15.28
2019-06-08T00:42:31.989Z,15.30
2019-06-08T00:43:32.019Z,15.31
2019-06-08T00:44:32.073Z,15.39
2019-06-08T00:45:32.115Z,15.31
2019-06-08T00:46:32.175Z,15.28
2019-06-08T00:47:46.939Z,15.24
2019-06-08T00:48:32.264Z,15.19
2019-06-08T00:49:32.328Z,15.21
2019-06-08T00:50:32.364Z,15.26
2019-06-08T00:51:32.414Z,15.31
2019-06-08T00:52:32.484Z,15.28
2019-06-08T00:53:32.851Z,15.28
2019-06-08T00:54:32.562Z,15.38
2019-06-08T00:55:32.620Z,15.35
2019-06-08T00:56:32.663Z,15.28
2019-06-08T00:57:32.737Z,15.27
2019-06-08T00:58:32.784Z,15.27
2019-06-08T00:59:32.808Z,15.26
2019-06-08T01:00:32.868Z,15.20
2019-06-08T01:01:32.912Z,15.23
2019-06-08T01:02:33.000Z,15.26
2019-06-08T01:03:33.011Z,15.24
2019-06-08T01:04:33.061Z,15.23
2019-06-08T01:05:33.110Z,15.19
2019-06-08T01:06:33.161Z,15.19
2019-06-08T01:07:33.229Z,15.19
2019-06-08T01:08:33.286Z,15.24
2019-06-08T01:09:33.309Z,15.27
2019-06-08T01:10:33.354Z,15.24
2019-06-08T01:11:33.401Z,15.19
2019-06-08T01:12:33.450Z,15.27
2019-06-08T01:13:33.533Z,15.17
2019-06-08T01:14:33.548Z,15.15
2019-06-08T01:15:34.466Z,15.15
2019-06-08T01:16:33.646Z,15.17
2019-06-08T01:17:33.696Z,15.06
2019-06-08T01:18:33.769Z,15.11
2019-06-08T01:19:33.921Z,15.02
2019-06-08T01:20:33.843Z,14.99
2019-06-08T01:21:33.894Z,15.08
2019-06-08T01:22:33.943Z,14.98
2019-06-08T01:23:34.011Z,14.99
2019-06-08T01:24:34.040Z,15.06
2019-06-08T01:25:34.089Z,15.11
2019-06-08T01:26:34.156Z,15.12
2019-06-08T01:27:34.194Z,15.20
2019-06-08T01:28:34.353Z,15.15
2019-06-08T01:29:34.286Z,15.19
2019-06-08T01:30:34.340Z,15.21
2019-06-08T01:31:34.392Z,15.27
2019-06-08T01:32:34.435Z,15.27
2019-06-08T01:33:34.505Z,15.26
2019-06-08T01:34:34.557Z,15.31
2019-06-08T01:35:34.626Z,15.30
2019-06-08T01:36:34.635Z,15.28
2019-06-08T01:37:34.687Z,15.30
2019-06-08T01:38:34.737Z,15.20
2019-06-08T01:39:34.809Z,15.21
2019-06-08T01:40:34.828Z,15.23
2019-06-08T01:41:34.888Z,15.15
2019-06-08T01:42:34.956Z,15.12
2019-06-08T01:43:34.983Z,15.08
2019-06-08T01:44:35.052Z,15.12
2019-06-08T01:45:35.099Z,15.11
2019-06-08T01:46:35.125Z,15.13
2019-06-08T01:47:35.178Z,15.11
2019-06-08T01:48:35.223Z,15.09
2019-06-08T01:49:35.296Z,15.08
2019-06-08T01:50:35.332Z,15.11
2019-06-08T01:51:35.372Z,15.12
2019-06-08T01:52:35.421Z,15.11
2019-06-08T01:53:35.471Z,15.12
2019-06-08T01:54:35.540Z,15.09
2019-06-08T01:55:35.581Z,15.11
2019-06-08T01:56:35.621Z,15.09
2019-06-08T01:57:35.715Z,15.15
2019-06-08T01:58:35.721Z,15.17
2019-06-08T01:59:35.789Z,15.13
2019-06-08T02:00:40.751Z,15.11
2019-06-08T02:01:35.865Z,15.06
2019-06-08T02:02:35.913Z,15.13
2019-06-08T02:03:35.987Z,15.11
2019-06-08T02:04:36.048Z,15.08
2019-06-08T02:05:36.065Z,15.15
2019-06-08T02:06:36.135Z,15.17
2019-06-08T02:07:36.165Z,15.09
2019-06-08T02:08:36.217Z,15.12
2019-06-08T02:09:36.286Z,15.13
2019-06-08T02:10:36.314Z,15.24
2019-06-08T02:11:36.361Z,15.21
2019-06-08T02:12:36.414Z,15.27
2019-06-08T02:13:36.460Z,15.38
2019-06-08T02:14:36.671Z,15.31
2019-06-08T02:15:36.588Z,15.28
2019-06-08T02:16:36.605Z,15.27
2019-06-08T02:17:36.667Z,15.26
2019-06-08T02:18:47.385Z,15.21
2019-06-08T02:19:36.756Z,15.21
2019-06-08T02:20:36.820Z,15.27
2019-06-08T02:21:36.851Z,15.31
2019-06-08T02:22:36.905Z,15.27
2019-06-08T02:23:36.951Z,15.30
2019-06-08T02:24:37.003Z,15.38
2019-06-08T02:25:37.074Z,15.33
2019-06-08T02:26:37.102Z,15.38
2019-06-08T02:27:37.152Z,15.31
2019-06-08T02:28:37.196Z,15.36
2019-06-08T02:29:37.275Z,15.38
2019-06-08T02:30:39.737Z,15.27
2019-06-08T02:31:37.848Z,15.23
2019-06-08T02:32:37.558Z,15.33
2019-06-08T02:33:37.467Z,15.49
2019-06-08T02:34:38.216Z,15.54
2019-06-08T02:35:37.911Z,15.57
2019-06-08T02:36:38.021Z,15.52
2019-06-08T02:37:38.425Z,15.72
2019-06-08T02:38:37.692Z,15.68
2019-06-08T02:39:38.570Z,15.70
2019-06-08T02:40:37.815Z,15.68
2019-06-08T02:41:39.735Z,15.79
2019-06-08T02:42:37.895Z,15.79
2019-06-08T02:43:40.068Z,15.88
2019-06-08T02:44:37.990Z,15.85
2019-06-08T02:45:38.980Z,15.84
2019-06-08T02:46:40.137Z,15.79
2019-06-08T02:47:38.139Z,15.85
2019-06-08T02:49:00.245Z,15.79
2019-06-08T02:49:39.666Z,15.78
2019-06-08T02:50:39.034Z,15.92
2019-06-08T02:51:38.370Z,15.93
2019-06-08T02:52:38.877Z,15.94
2019-06-08T02:53:38.499Z,15.93
2019-06-08T02:54:39.801Z,15.96
2019-06-08T02:55:39.423Z,15.96
2019-06-08T02:56:39.313Z,16.07
2019-06-08T02:57:39.912Z,15.92
2019-06-08T02:58:40.791Z,15.89
2019-06-08T02:59:40.744Z,15.93
2019-06-08T03:00:39.540Z,16.00
2019-06-08T03:01:40.545Z,15.99
2019-06-08T03:02:40.479Z,15.92
2019-06-08T03:03:40.295Z,15.92
2019-06-08T03:04:41.116Z,15.86
2019-06-08T03:05:40.464Z,15.89
2019-06-08T03:06:41.233Z,15.88
2019-06-08T03:07:40.886Z,15.82
2019-06-08T03:08:41.444Z,15.84
2019-06-08T03:09:40.851Z,15.75
2019-06-08T03:10:39.393Z,15.67
2019-06-08T03:11:40.911Z,15.67
2019-06-08T03:12:40.361Z,15.72
2019-06-08T03:13:40.344Z,15.61
2019-06-08T03:14:39.743Z,15.54
2019-06-08T03:15:41.495Z,15.57
2019-06-08T03:16:41.499Z,15.61
2019-06-08T03:17:40.116Z,15.52
2019-06-08T03:18:40.193Z,15.57
2019-06-08T03:19:39.969Z,15.52
2019-06-08T03:20:40.097Z,15.49
2019-06-08T03:21:40.537Z,15.52
2019-06-08T03:22:41.897Z,15.46
2019-06-08T03:23:41.488Z,15.49
2019-06-08T03:24:41.241Z,15.39
2019-06-08T03:25:47.337Z,15.35
2019-06-08T03:26:41.837Z,15.33
2019-06-08T03:27:40.780Z,15.35
2019-06-08T03:28:41.565Z,15.27
2019-06-08T03:29:41.595Z,15.24
2019-06-08T03:30:51.947Z,15.20
2019-06-08T03:31:49.708Z,15.09
2019-06-08T03:32:50.888Z,15.17
2019-06-08T03:33:51.026Z,15.05
2019-06-08T03:34:51.126Z,15.13
2019-06-08T03:35:52.037Z,15.08
2019-06-08T03:36:53.752Z,15.12
2019-06-08T03:37:42.173Z,15.19
2019-06-08T03:38:42.328Z,15.15
2019-06-08T03:39:41.310Z,15.15
2019-06-08T03:40:42.710Z,15.12
2019-06-08T03:41:42.527Z,15.19
2019-06-08T03:42:40.871Z,15.09
2019-06-08T03:43:42.374Z,15.13
2019-06-08T03:44:42.822Z,15.15
2019-06-08T03:45:42.904Z,15.17
2019-06-08T03:46:41.758Z,15.13
2019-06-08T03:47:41.816Z,15.09
2019-06-08T03:48:42.162Z,15.06
2019-06-08T03:49:52.221Z,15.09
2019-06-08T03:50:42.049Z,15.12
2019-06-08T03:51:44.594Z,15.13
2019-06-08T03:52:42.066Z,15.21
2019-06-08T03:53:42.623Z,15.23
2019-06-08T03:54:43.111Z,15.26
2019-06-08T03:55:42.991Z,15.21
2019-06-08T03:56:42.171Z,15.21
2019-06-08T03:57:42.164Z,15.15
2019-06-08T03:58:42.824Z,15.20
2019-06-08T03:59:43.333Z,15.17
2019-06-08T04:00:42.428Z,15.13
2019-06-08T04:01:43.478Z,15.09
2019-06-08T04:02:42.332Z,15.06
2019-06-08T04:03:43.774Z,15.11
2019-06-08T04:04:43.663Z,15.15
2019-06-08T04:05:42.718Z,15.08
2019-06-08T04:06:43.558Z,15.08
2019-06-08T04:07:44.059Z,15.09
2019-06-08T04:08:44.306Z,14.94
2019-06-08T04:09:43.489Z,15.06
2019-06-08T04:10:44.165Z,15.01
2019-06-08T04:11:42.809Z,15.03
2019-06-08T04:12:44.058Z,15.06
2019-06-08T04:13:44.391Z,15.13
2019-06-08T04:14:44.305Z,15.08
2019-06-08T04:15:44.461Z,15.13
2019-06-08T04:16:44.370Z,15.12
2019-06-08T04:17:44.070Z,15.12
2019-06-08T04:18:44.286Z,15.09
2019-06-08T04:20:02.794Z,15.12
2019-06-08T04:20:45.499Z,15.08
2019-06-08T04:21:44.153Z,15.08
2019-06-08T04:22:44.475Z,15.11
2019-06-08T04:23:44.900Z,15.09
2019-06-08T04:24:44.578Z,15.11
2019-06-08T04:25:44.791Z,15.08
2019-06-08T04:26:45.009Z,15.08
2019-06-08T04:27:44.609Z,15.12
2019-06-08T04:28:44.597Z,15.08
2019-06-08T04:29:43.991Z,15.12
2019-06-08T04:30:45.163Z,15.15
2019-06-08T04:31:43.839Z,15.15
2019-06-08T04:32:44.727Z,15.21
2019-06-08T04:33:44.292Z,15.21
2019-06-08T04:34:45.363Z,15.31
2019-06-08T04:35:45.168Z,15.30
2019-06-08T04:36:44.116Z,15.33
2019-06-08T04:37:44.856Z,15.36
2019-06-08T04:38:45.561Z,15.38
2019-06-08T04:39:44.536Z,15.43
2019-06-08T04:40:45.665Z,15.46
2019-06-08T04:41:44.981Z,15.45
2019-06-08T04:42:44.428Z,15.46
2019-06-08T04:43:45.074Z,15.52
2019-06-08T04:44:44.584Z,15.49
2019-06-08T04:45:45.830Z,15.45
2019-06-08T04:46:45.490Z,15.54
2019-06-08T04:47:46.142Z,15.54
2019-06-08T04:48:45.329Z,15.36
2019-06-08T04:49:44.997Z,15.43
2019-06-08T04:50:45.424Z,15.48
2019-06-08T04:51:45.259Z,15.51
2019-06-08T04:52:44.971Z,15.51
2019-06-08T04:53:45.579Z,15.45
2019-06-08T04:54:45.122Z,15.46
2019-06-08T04:55:45.156Z,15.46
2019-06-08T04:56:44.931Z,15.30
2019-06-08T04:57:47.408Z,15.41
2019-06-08T04:58:46.840Z,15.31
2019-06-08T04:59:46.075Z,15.39
2019-06-08T05:00:46.261Z,15.33
2019-06-08T05:01:45.129Z,15.38
2019-06-08T05:02:46.249Z,15.31
2019-06-08T05:03:45.603Z,15.35
2019-06-08T05:04:45.305Z,15.38
2019-06-08T05:05:45.311Z,15.28
2019-06-08T05:06:45.236Z,15.33
2019-06-08T05:07:46.045Z,15.27
2019-06-08T05:08:45.294Z,15.23
2019-06-08T05:09:45.231Z,15.21
2019-06-08T05:10:45.372Z,15.20
2019-06-08T05:11:45.361Z,15.21
2019-06-08T05:12:45.657Z,15.31
2019-06-08T05:13:45.444Z,15.24
2019-06-08T05:14:45.381Z,15.28
2019-06-08T05:15:45.535Z,15.35
2019-06-08T05:16:45.488Z,15.33
2019-06-08T05:17:45.549Z,15.35
2019-06-08T05:18:45.578Z,15.33
2019-06-08T05:19:45.633Z,15.42
2019-06-08T05:20:48.850Z,15.41
2019-06-08T05:21:45.726Z,15.41
2019-06-08T05:22:45.775Z,15.38
2019-06-08T05:23:45.824Z,15.36
2019-06-08T05:24:45.885Z,15.36
2019-06-08T05:25:47.215Z,15.35
2019-06-08T05:26:47.308Z,15.30
2019-06-08T05:27:47.280Z,15.27
2019-06-08T05:28:47.301Z,15.33
2019-06-08T05:29:47.227Z,15.35
2019-06-08T05:30:47.371Z,15.41
2019-06-08T05:31:47.559Z,15.36
2019-06-08T05:32:47.561Z,15.31
2019-06-08T05:33:47.491Z,15.41
2019-06-08T05:34:47.538Z,15.42
2019-06-08T05:35:47.514Z,15.46
2019-06-08T05:36:47.461Z,15.41
2019-06-08T05:37:47.744Z,15.42
2019-06-08T05:38:47.583Z,15.38
2019-06-08T05:39:47.758Z,15.41
2019-06-08T05:40:47.619Z,15.42
2019-06-08T05:41:47.602Z,15.42
2019-06-08T05:42:47.831Z,15.46
2019-06-08T05:43:47.680Z,15.52
2019-06-08T05:44:47.837Z,15.59
2019-06-08T05:45:48.378Z,15.60
2019-06-08T05:46:47.930Z,15.56
2019-06-08T05:47:47.953Z,15.66
2019-06-08T05:48:48.007Z,15.70
2019-06-08T05:49:47.993Z,15.74
2019-06-08T05:51:00.171Z,15.81
2019-06-08T05:51:47.849Z,15.86
2019-06-08T05:52:48.017Z,15.92
2019-06-08T05:53:47.894Z,15.93
2019-06-08T05:54:47.933Z,15.96
2019-06-08T05:55:47.985Z,16.00
2019-06-08T05:56:47.993Z,16.03
2019-06-08T05:57:48.390Z,16.03
2019-06-08T05:58:48.108Z,15.96
2019-06-08T05:59:48.177Z,16.00
2019-06-08T06:00:48.359Z,16.09
2019-06-08T06:01:48.635Z,16.00
2019-06-08T06:02:48.827Z,16.04
2019-06-08T06:03:48.718Z,16.09
2019-06-08T06:04:51.596Z,16.12
2019-06-08T06:05:48.517Z,16.11
2019-06-08T06:06:49.225Z,16.15
2019-06-08T06:07:49.051Z,16.18
2019-06-08T06:08:48.749Z,16.16
2019-06-08T06:09:48.844Z,16.25
2019-06-08T06:10:48.937Z,16.33
2019-06-08T06:11:48.916Z,16.34
2019-06-08T06:12:49.042Z,16.31
2019-06-08T06:13:49.234Z,16.44
2019-06-08T06:14:49.082Z,16.49
2019-06-08T06:15:49.050Z,16.44
2019-06-08T06:16:49.133Z,16.56
2019-06-08T06:17:49.806Z,16.56
2019-06-08T06:18:49.154Z,16.53
2019-06-08T06:19:49.257Z,16.55
2019-06-08T06:20:49.389Z,16.70
2019-06-08T06:21:49.239Z,16.58
2019-06-08T06:22:49.528Z,16.63
2019-06-08T06:23:49.297Z,16.56
2019-06-08T06:24:49.707Z,16.56
2019-06-08T06:25:49.585Z,16.58
2019-06-08T06:26:49.445Z,16.68
2019-06-08T06:27:49.628Z,16.65
2019-06-08T06:28:49.657Z,16.75
2019-06-08T06:29:49.982Z,16.78
2019-06-08T06:30:50.190Z,16.78
2019-06-08T06:31:49.768Z,16.83
2019-06-08T06:32:50.190Z,16.78
2019-06-08T06:33:50.054Z,16.80
2019-06-08T06:34:49.937Z,16.73
2019-06-08T06:35:49.963Z,16.71
2019-06-08T06:36:49.825Z,16.65
2019-06-08T06:37:50.260Z,16.74
2019-06-08T06:38:50.166Z,16.68
2019-06-08T06:39:50.091Z,16.73
2019-06-08T06:40:50.046Z,16.80
2019-06-08T06:41:49.934Z,16.88
2019-06-08T06:42:50.067Z,16.92
2019-06-08T06:43:50.413Z,16.77
2019-06-08T06:44:50.559Z,16.90
2019-06-08T06:45:49.993Z,16.92
2019-06-08T06:46:50.146Z,16.95
2019-06-08T06:47:50.475Z,16.98
2019-06-08T06:48:50.401Z,16.95
2019-06-08T06:49:50.649Z,16.90
2019-06-08T06:50:50.432Z,16.92
2019-06-08T06:51:50.550Z,16.90
2019-06-08T06:52:50.789Z,16.83
2019-06-08T06:53:50.862Z,16.83
2019-06-08T06:54:51.222Z,16.93
2019-06-08T06:55:51.035Z,16.86
2019-06-08T06:56:51.809Z,16.98
2019-06-08T06:57:51.551Z,16.96
2019-06-08T06:58:51.585Z,17.03
2019-06-08T06:59:51.911Z,17.08
2019-06-08T07:00:51.536Z,17.03
2019-06-08T07:01:54.100Z,17.06
2019-06-08T07:02:51.790Z,17.15
2019-06-08T07:03:52.105Z,17.15
2019-06-08T07:04:52.142Z,17.10
2019-06-08T07:05:51.945Z,17.13
2019-06-08T07:06:52.151Z,17.18
2019-06-08T07:07:51.311Z,17.11
2019-06-08T07:08:52.353Z,17.18
2019-06-08T07:09:51.121Z,17.25
2019-06-08T07:10:51.154Z,17.25
2019-06-08T07:11:51.207Z,17.22
2019-06-08T07:12:51.256Z,17.18
2019-06-08T07:13:51.297Z,17.25
2019-06-08T07:14:51.421Z,17.23
2019-06-08T07:15:54.448Z,17.20
2019-06-08T07:16:51.967Z,17.20
2019-06-08T07:17:53.119Z,17.25
2019-06-08T07:18:52.595Z,17.26
2019-06-08T07:19:52.627Z,17.22
2019-06-08T07:20:52.317Z,17.25
2019-06-08T07:21:53.062Z,17.23
2019-06-08T07:22:52.281Z,17.22
2019-06-08T07:23:54.488Z,17.23
2019-06-08T07:24:52.644Z,17.29
2019-06-08T07:25:52.968Z,17.23
2019-06-08T07:26:52.447Z,17.32
2019-06-08T07:27:52.619Z,17.40
2019-06-08T07:28:53.374Z,17.35
2019-06-08T07:29:52.653Z,17.41
2019-06-08T07:30:52.779Z,17.44
2019-06-08T07:31:53.387Z,17.59
2019-06-08T07:32:53.014Z,17.70
2019-06-08T07:33:53.526Z,17.67
2019-06-08T07:34:53.188Z,17.46
2019-06-08T07:35:53.369Z,17.44
2019-06-08T07:36:53.369Z,17.46
2019-06-08T07:37:53.699Z,17.43
2019-06-08T07:38:53.379Z,17.50
2019-06-08T07:39:53.647Z,17.51
2019-06-08T07:40:53.826Z,17.67
2019-06-08T07:41:54.175Z,17.70
2019-06-08T07:42:53.435Z,17.62
2019-06-08T07:43:52.816Z,17.69
2019-06-08T07:44:52.926Z,17.76
2019-06-08T07:45:54.072Z,17.70
2019-06-08T07:46:53.759Z,17.71
2019-06-08T07:47:53.966Z,17.71
2019-06-08T07:48:54.104Z,17.84
2019-06-08T07:49:53.342Z,17.99
2019-06-08T07:50:54.249Z,17.99
2019-06-08T07:52:02.477Z,18.04
2019-06-08T07:52:54.541Z,17.99
2019-06-08T07:53:53.601Z,17.99
2019-06-08T07:54:54.632Z,18.04
2019-06-08T07:55:53.558Z,18.12
2019-06-08T07:56:54.837Z,18.18
2019-06-08T07:57:54.032Z,18.46
2019-06-08T07:58:54.914Z,18.61
2019-06-08T07:59:54.582Z,18.76
2019-06-08T08:00:54.637Z,18.76
2019-06-08T08:01:53.994Z,18.90
2019-06-08T08:02:54.348Z,18.83
2019-06-08T08:03:54.181Z,18.65
2019-06-08T08:04:54.619Z,18.24
2019-06-08T08:05:55.040Z,18.07
2019-06-08T08:06:54.535Z,17.92
2019-06-08T08:07:54.751Z,18.00
2019-06-08T08:08:54.844Z,18.21
2019-06-08T08:09:54.936Z,18.33
2019-06-08T08:10:54.569Z,18.43
2019-06-08T08:11:55.212Z,18.55
2019-06-08T08:12:54.758Z,18.82
2019-06-08T08:13:54.834Z,18.86
2019-06-08T08:14:55.447Z,18.83
2019-06-08T08:15:57.409Z,18.91
2019-06-08T08:16:55.063Z,19.05
2019-06-08T08:17:55.497Z,19.10
2019-06-08T08:18:55.544Z,19.06
2019-06-08T08:19:55.174Z,18.91
2019-06-08T08:20:55.842Z,18.82
2019-06-08T08:21:56.089Z,18.82
2019-06-08T08:22:58.885Z,18.86
2019-06-08T08:23:55.918Z,18.87
2019-06-08T08:24:58.108Z,18.77
2019-06-08T08:25:55.207Z,18.90
2019-06-08T08:26:57.061Z,18.83
2019-06-08T08:27:55.871Z,18.77
2019-06-08T08:28:57.131Z,18.70
2019-06-08T08:29:55.409Z,18.80
2019-06-08T08:30:56.156Z,18.70
2019-06-08T08:31:55.534Z,18.87
2019-06-08T08:32:57.052Z,18.91
2019-06-08T08:33:55.929Z,19.11
2019-06-08T08:34:58.403Z,18.90
2019-06-08T08:35:55.627Z,18.57
2019-06-08T08:36:58.173Z,18.44
2019-06-08T08:38:00.411Z,18.54
2019-06-08T08:38:56.666Z,18.74
2019-06-08T08:39:55.678Z,18.43
2019-06-08T08:40:59.359Z,18.33
2019-06-08T08:42:02.253Z,18.70
2019-06-08T08:42:58.255Z,18.86
2019-06-08T08:44:01.873Z,18.52
2019-06-08T08:44:58.646Z,18.64
2019-06-08T08:45:56.746Z,18.55
2019-06-08T08:46:56.972Z,18.34
2019-06-08T08:48:16.043Z,18.42
2019-06-08T08:49:04.659Z,18.64
2019-06-08T08:49:58.681Z,18.84
2019-06-08T08:50:58.610Z,18.82
2019-06-08T08:51:58.762Z,19.08
2019-06-08T08:52:58.945Z,19.42
2019-06-08T08:54:03.029Z,19.23
2019-06-08T08:54:59.118Z,19.31
2019-06-08T08:56:00.471Z,19.50
2019-06-08T08:57:01.115Z,19.61
2019-06-08T08:57:59.004Z,19.83
2019-06-08T08:58:59.213Z,19.80
2019-06-08T09:00:01.106Z,19.65
2019-06-08T09:00:59.444Z,19.86
2019-06-08T09:01:57.517Z,19.90
2019-06-08T09:03:13.987Z,19.94
2019-06-08T09:04:00.938Z,19.66
2019-06-08T09:04:59.657Z,19.63
2019-06-08T09:06:01.374Z,19.60
2019-06-08T09:07:01.061Z,19.39
2019-06-08T09:07:58.868Z,19.47
2019-06-08T09:09:00.807Z,19.58
2019-06-08T09:10:00.440Z,19.42
2019-06-08T09:10:59.778Z,19.53
2019-06-08T09:12:02.310Z,19.35
2019-06-08T09:13:01.676Z,19.61
2019-06-08T09:14:01.386Z,18.95
2019-06-08T09:15:00.183Z,18.86
2019-06-08T09:16:00.203Z,19.08
2019-06-08T09:16:59.869Z,18.95
2019-06-08T09:17:59.821Z,19.25
2019-06-08T09:19:00.825Z,19.15
2019-06-08T09:19:58.889Z,19.06
2019-06-08T09:21:00.415Z,19.02
2019-06-08T09:22:00.432Z,19.05
2019-06-08T09:23:03.923Z,19.20
2019-06-08T09:24:00.786Z,19.24
2019-06-08T09:25:01.143Z,19.01
2019-06-08T09:26:06.010Z,18.82
2019-06-08T09:27:00.850Z,19.08
2019-06-08T09:28:01.168Z,19.33
2019-06-08T09:28:58.456Z,19.72
2019-06-08T09:30:00.714Z,19.98
2019-06-08T09:31:00.324Z,19.84
2019-06-08T09:32:00.418Z,19.55
2019-06-08T09:33:00.588Z,19.66
2019-06-08T09:34:07.523Z,19.84
2019-06-08T09:35:02.312Z,20.12
2019-06-08T09:36:01.580Z,20.56
2019-06-08T09:37:00.190Z,21.06
2019-06-08T09:38:01.144Z,21.42
2019-06-08T09:39:00.754Z,21.60
2019-06-08T09:40:00.151Z,21.81
2019-06-08T09:41:01.250Z,21.97
2019-06-08T09:42:01.903Z,21.79
2019-06-08T09:43:07.384Z,21.56
2019-06-08T09:44:02.371Z,20.98
2019-06-08T09:45:01.941Z,20.59
2019-06-08T09:46:02.057Z,20.68
2019-06-08T09:47:05.236Z,20.87
2019-06-08T09:48:01.828Z,21.08
2019-06-08T09:49:05.847Z,20.51
2019-06-08T09:50:03.281Z,20.33
2019-06-08T09:51:00.443Z,20.54
2019-06-08T09:52:01.904Z,20.62
2019-06-08T09:53:14.864Z,20.84
2019-06-08T09:54:02.629Z,20.90
2019-06-08T09:55:02.870Z,20.98
2019-06-08T09:56:03.899Z,21.16
2019-06-08T09:57:02.767Z,21.38
2019-06-08T09:58:05.101Z,21.39
2019-06-08T09:59:02.742Z,21.35
2019-06-08T10:00:02.574Z,21.41
2019-06-08T10:01:02.884Z,21.44
2019-06-08T10:02:05.633Z,21.39
2019-06-08T10:03:03.845Z,21.34
2019-06-08T10:04:02.383Z,21.20
2019-06-08T10:05:02.425Z,21.20
2019-06-08T10:06:05.669Z,20.64
2019-06-08T10:07:02.216Z,19.91
2019-06-08T10:08:01.905Z,20.25
2019-06-08T10:09:00.703Z,20.33
2019-06-08T10:10:02.651Z,20.46
2019-06-08T10:11:04.067Z,20.13
2019-06-08T10:12:03.426Z,20.03
2019-06-08T10:13:03.734Z,19.83
2019-06-08T10:14:04.730Z,19.84
2019-06-08T10:15:00.843Z,20.15
2019-06-08T10:16:05.015Z,20.69
2019-06-08T10:17:02.675Z,20.76
2019-06-08T10:18:01.013Z,21.05
2019-06-08T10:19:03.884Z,21.13
2019-06-08T10:20:02.780Z,21.35
2019-06-08T10:21:02.876Z,21.66
2019-06-08T10:22:01.015Z,21.50
2019-06-08T10:23:03.279Z,21.67
2019-06-08T10:24:03.430Z,21.76
2019-06-08T10:25:04.457Z,20.93
2019-06-08T10:26:02.999Z,21.11
2019-06-08T10:27:01.438Z,21.39
2019-06-08T10:28:09.833Z,21.67
2019-06-08T10:29:03.673Z,21.82
2019-06-08T10:30:03.285Z,21.99
2019-06-08T10:31:03.315Z,21.61
2019-06-08T10:32:01.623Z,21.44
2019-06-08T10:33:03.524Z,21.30
2019-06-08T10:34:03.422Z,20.79
2019-06-08T10:35:03.661Z,20.23
2019-06-08T10:36:03.630Z,20.28
2019-06-08T10:37:06.441Z,20.79
2019-06-08T10:38:05.506Z,21.06
2019-06-08T10:39:03.775Z,21.69
2019-06-08T10:40:03.860Z,21.88
2019-06-08T10:41:10.448Z,22.41
2019-06-08T10:42:03.589Z,22.57
2019-06-08T10:43:03.410Z,22.62
2019-06-08T10:44:03.384Z,22.92
2019-06-08T10:45:07.617Z,22.97
2019-06-08T10:46:08.497Z,22.96
2019-06-08T10:47:04.079Z,22.90
2019-06-08T10:48:03.236Z,23.26
2019-06-08T10:49:04.045Z,22.82
2019-06-08T10:50:07.579Z,22.68
2019-06-08T10:51:05.422Z,23.09
2019-06-08T10:52:04.305Z,23.01
2019-06-08T10:53:04.682Z,22.52
2019-06-08T10:54:04.285Z,22.65
2019-06-08T10:55:04.655Z,22.80
2019-06-08T10:56:03.438Z,23.11
2019-06-08T10:57:05.721Z,23.50
2019-06-08T10:58:04.377Z,23.77
2019-06-08T10:59:04.866Z,23.09
2019-06-08T11:00:12.419Z,23.08
2019-06-08T11:01:05.944Z,22.56
2019-06-08T11:02:07.052Z,21.60
2019-06-08T11:03:05.132Z,21.06
2019-06-08T11:04:03.969Z,21.27
2019-06-08T11:05:09.061Z,21.90
2019-06-08T11:06:04.560Z,22.29
2019-06-08T11:07:07.208Z,22.82
2019-06-08T11:08:04.480Z,23.08
2019-06-08T11:09:06.127Z,23.32
2019-06-08T11:10:03.794Z,23.08
2019-06-08T11:11:04.944Z,22.80
2019-06-08T11:12:05.252Z,22.64
2019-06-08T11:13:06.788Z,22.60
2019-06-08T11:14:05.396Z,22.67
2019-06-08T11:15:05.076Z,22.96
2019-06-08T11:16:05.458Z,23.43
2019-06-08T11:17:05.037Z,23.95
2019-06-08T11:18:06.951Z,24.52
2019-06-08T11:19:04.745Z,24.85
2019-06-08T11:20:04.784Z,25.02
2019-06-08T11:21:05.812Z,25.39
2019-06-08T11:22:07.699Z,25.05
2019-06-08T11:23:05.646Z,24.23
2019-06-08T11:24:15.948Z,23.53
2019-06-08T11:25:05.954Z,23.38
2019-06-08T11:26:12.088Z,23.39
2019-06-08T11:27:05.599Z,23.86
2019-06-08T11:28:07.952Z,24.10
2019-06-08T11:29:05.059Z,24.08
2019-06-08T11:30:11.716Z,23.55
2019-06-08T11:31:05.962Z,23.26
2019-06-08T11:32:06.555Z,23.35
2019-06-08T11:33:06.125Z,23.46
2019-06-08T11:34:06.190Z,23.61
2019-06-08T11:35:06.461Z,23.97
2019-06-08T11:36:07.201Z,24.31
2019-06-08T11:37:06.655Z,24.77
2019-06-08T11:38:06.727Z,24.85
2019-06-08T11:39:06.102Z,25.09
2019-06-08T11:40:07.124Z,24.22
2019-06-08T11:41:09.357Z,23.89
2019-06-08T11:42:08.733Z,23.40
2019-06-08T11:43:06.465Z,23.23
2019-06-08T11:44:07.145Z,23.62
2019-06-08T11:45:07.169Z,24.02
2019-06-08T11:46:06.628Z,23.86
2019-06-08T11:47:07.366Z,23.97
2019-06-08T11:48:06.489Z,23.72
2019-06-08T11:49:08.244Z,23.82
2019-06-08T11:50:07.259Z,23.79
2019-06-08T11:51:07.305Z,24.23
2019-06-08T11:52:06.851Z,23.87
2019-06-08T11:53:07.814Z,24.13
2019-06-08T11:54:24.468Z,23.64
2019-06-08T11:55:07.468Z,23.79
2019-06-08T11:56:09.435Z,23.80
2019-06-08T11:57:09.370Z,22.92
2019-06-08T11:58:09.791Z,23.02
2019-06-08T11:59:07.258Z,22.80
2019-06-08T12:00:14.963Z,23.07
2019-06-08T12:01:09.985Z,23.72
2019-06-08T12:02:09.080Z,24.23
2019-06-08T12:03:08.842Z,24.69
2019-06-08T12:04:07.734Z,24.50
2019-06-08T12:05:10.501Z,24.39
2019-06-08T12:06:10.428Z,24.67
2019-06-08T12:07:09.098Z,24.73
2019-06-08T12:08:06.820Z,24.44
2019-06-08T12:09:09.076Z,23.68
2019-06-08T12:10:09.086Z,23.80
2019-06-08T12:11:11.574Z,24.16
2019-06-08T12:12:10.062Z,24.47
2019-06-08T12:13:09.221Z,25.02
2019-06-08T12:14:09.453Z,25.39
2019-06-08T12:15:11.177Z,25.75
2019-06-08T12:16:09.333Z,25.82
2019-06-08T12:17:11.788Z,24.61
2019-06-08T12:18:08.322Z,24.05
2019-06-08T12:19:13.191Z,24.10
2019-06-08T12:20:09.799Z,24.49
2019-06-08T12:21:08.685Z,24.63
2019-06-08T12:22:08.753Z,24.97
2019-06-08T12:23:07.942Z,25.17
2019-06-08T12:24:08.310Z,25.34
2019-06-08T12:25:08.205Z,24.68
2019-06-08T12:26:08.174Z,23.61
2019-06-08T12:27:15.350Z,23.07
2019-06-08T12:28:08.449Z,23.12
2019-06-08T12:29:09.945Z,23.55
2019-06-08T12:30:16.010Z,23.35
2019-06-08T12:31:13.232Z,23.34
2019-06-08T12:32:10.662Z,23.11
2019-06-08T12:33:09.794Z,23.71
2019-06-08T12:34:09.227Z,23.65
2019-06-08T12:35:10.683Z,23.67
2019-06-08T12:36:10.709Z,23.61
2019-06-08T12:37:13.402Z,23.79
2019-06-08T12:38:09.920Z,24.27
2019-06-08T12:39:08.575Z,24.64
2019-06-08T12:40:11.483Z,25.16
2019-06-08T12:41:10.503Z,25.43
2019-06-08T12:42:14.666Z,25.74
2019-06-08T12:43:11.379Z,25.32
2019-06-08T12:44:10.404Z,25.54
2019-06-08T12:45:09.356Z,25.47
2019-06-08T12:46:11.116Z,25.27
2019-06-08T12:47:13.326Z,24.79
2019-06-08T12:48:14.641Z,24.13
2019-06-08T12:49:11.227Z,23.67
2019-06-08T12:50:12.291Z,23.76
2019-06-08T12:51:11.376Z,24.31
2019-06-08T12:52:10.419Z,24.88
2019-06-08T12:53:13.428Z,25.07